sensor_id;sensor_type;location;lat;lon;timestamp;P1;durP1;ratioP1;P2;durP2;ratioP2
80987;SDS011;70452;39.386;-3.210;2023-07-20T00:01:59;28.60;;;6.18;;
80987;SDS011;70452;39.386;-3.210;2023-07-20T00:04:33;30.33;;;6.18;;
80987;SDS011;70452;39.386;-3.210;2023-07-20T00:07:09;24.63;;;6.65;;
80987;SDS011;70452;39.386;-3.210;2023-07-20T00:09:46;32.15;;;6.43;;
80987;SDS011;70452;39.386;-3.210;2023-07-20T00:12:20;32.95;;;5.90;;
80987;SDS011;70452;39.386;-3.210;2023-07-20T00:15:02;32.80;;;5.53;;
80987;SDS011;70452;39.386;-3.210;2023-07-20T00:18:00;31.80;;;6.13;;
80987;SDS011;70452;39.386;-3.210;2023-07-20T00:20:40;27.17;;;7.07;;
80987;SDS011;70452;39.386;-3.210;2023-07-20T00:23:16;28.77;;;6.57;;
80987;SDS011;70452;39.386;-3.210;2023-07-20T00:25:53;24.75;;;6.55;;
80987;SDS011;70452;39.386;-3.210;2023-07-20T00:28:30;26.15;;;5.07;;
80987;SDS011;70452;39.386;-3.210;2023-07-20T00:31:04;29.70;;;5.22;;
80987;SDS011;70452;39.386;-3.210;2023-07-20T00:33:33;29.25;;;6.45;;
80987;SDS011;70452;39.386;-3.210;2023-07-20T00:36:04;38.85;;;8.35;;
80987;SDS011;70452;39.386;-3.210;2023-07-20T00:38:39;33.75;;;5.10;;
80987;SDS011;70452;39.386;-3.210;2023-07-20T00:41:07;27.65;;;5.90;;
80987;SDS011;70452;39.386;-3.210;2023-07-20T00:43:42;38.28;;;6.35;;
80987;SDS011;70452;39.386;-3.210;2023-07-20T00:46:23;28.38;;;5.20;;
80987;SDS011;70452;39.386;-3.210;2023-07-20T00:48:58;28.80;;;5.25;;
80987;SDS011;70452;39.386;-3.210;2023-07-20T00:51:36;30.08;;;5.85;;
80987;SDS011;70452;39.386;-3.210;2023-07-20T00:54:22;28.20;;;5.60;;
80987;SDS011;70452;39.386;-3.210;2023-07-20T00:57:03;30.35;;;6.45;;
80987;SDS011;70452;39.386;-3.210;2023-07-20T00:59:36;32.58;;;6.25;;
80987;SDS011;70452;39.386;-3.210;2023-07-20T01:02:07;26.23;;;4.25;;
80987;SDS011;70452;39.386;-3.210;2023-07-20T01:04:39;29.98;;;5.50;;
80987;SDS011;70452;39.386;-3.210;2023-07-20T01:07:30;25.08;;;5.97;;
80987;SDS011;70452;39.386;-3.210;2023-07-20T01:12:54;30.75;;;5.97;;
80987;SDS011;70452;39.386;-3.210;2023-07-20T01:15:39;29.70;;;5.93;;
80987;SDS011;70452;39.386;-3.210;2023-07-20T01:18:20;33.92;;;7.35;;
80987;SDS011;70452;39.386;-3.210;2023-07-20T01:20:53;25.90;;;4.80;;
80987;SDS011;70452;39.386;-3.210;2023-07-20T01:33:17;30.17;;;6.25;;
80987;SDS011;70452;39.386;-3.210;2023-07-20T01:35:55;31.27;;;4.82;;
80987;SDS011;70452;39.386;-3.210;2023-07-20T01:38:37;28.98;;;5.57;;
80987;SDS011;70452;39.386;-3.210;2023-07-20T01:41:15;30.83;;;6.45;;
80987;SDS011;70452;39.386;-3.210;2023-07-20T01:43:58;31.48;;;5.95;;
80987;SDS011;70452;39.386;-3.210;2023-07-20T01:46:49;29.50;;;6.10;;
80987;SDS011;70452;39.386;-3.210;2023-07-20T01:49:31;29.48;;;6.53;;
80987;SDS011;70452;39.386;-3.210;2023-07-20T01:52:03;29.08;;;5.97;;
80987;SDS011;70452;39.386;-3.210;2023-07-20T01:54:46;32.97;;;6.10;;
80987;SDS011;70452;39.386;-3.210;2023-07-20T01:57:22;33.03;;;5.45;;
80987;SDS011;70452;39.386;-3.210;2023-07-20T02:00:20;30.77;;;5.65;;
80987;SDS011;70452;39.386;-3.210;2023-07-20T02:05:57;28.25;;;5.28;;
80987;SDS011;70452;39.386;-3.210;2023-07-20T02:08:42;29.13;;;6.43;;
80987;SDS011;70452;39.386;-3.210;2023-07-20T02:11:11;37.13;;;6.45;;
80987;SDS011;70452;39.386;-3.210;2023-07-20T02:14:04;25.30;;;5.40;;
80987;SDS011;70452;39.386;-3.210;2023-07-20T02:19:44;33.92;;;5.93;;
80987;SDS011;70452;39.386;-3.210;2023-07-20T02:22:26;26.77;;;5.75;;
80987;SDS011;70452;39.386;-3.210;2023-07-20T02:25:25;30.13;;;6.07;;
80987;SDS011;70452;39.386;-3.210;2023-07-20T02:28:00;33.70;;;5.63;;
80987;SDS011;70452;39.386;-3.210;2023-07-20T02:30:59;28.33;;;5.70;;
80987;SDS011;70452;39.386;-3.210;2023-07-20T02:33:36;30.73;;;6.30;;
80987;SDS011;70452;39.386;-3.210;2023-07-20T02:36:34;29.30;;;5.18;;
80987;SDS011;70452;39.386;-3.210;2023-07-20T02:39:11;30.27;;;5.65;;
80987;SDS011;70452;39.386;-3.210;2023-07-20T02:41:50;35.28;;;5.88;;
80987;SDS011;70452;39.386;-3.210;2023-07-20T02:44:41;38.80;;;4.93;;
80987;SDS011;70452;39.386;-3.210;2023-07-20T02:47:36;29.27;;;6.10;;
80987;SDS011;70452;39.386;-3.210;2023-07-20T02:50:16;34.47;;;5.15;;
80987;SDS011;70452;39.386;-3.210;2023-07-20T02:52:52;29.60;;;5.65;;
80987;SDS011;70452;39.386;-3.210;2023-07-20T02:55:29;36.70;;;6.53;;
80987;SDS011;70452;39.386;-3.210;2023-07-20T02:58:06;27.83;;;5.85;;
80987;SDS011;70452;39.386;-3.210;2023-07-20T03:00:54;30.63;;;5.15;;
80987;SDS011;70452;39.386;-3.210;2023-07-20T03:03:41;31.40;;;5.18;;
80987;SDS011;70452;39.386;-3.210;2023-07-20T03:06:26;27.95;;;5.22;;
80987;SDS011;70452;39.386;-3.210;2023-07-20T03:08:56;34.63;;;5.68;;
80987;SDS011;70452;39.386;-3.210;2023-07-20T03:11:47;29.33;;;4.80;;
80987;SDS011;70452;39.386;-3.210;2023-07-20T03:14:34;24.83;;;5.40;;
80987;SDS011;70452;39.386;-3.210;2023-07-20T03:17:30;24.52;;;5.07;;
80987;SDS011;70452;39.386;-3.210;2023-07-20T03:20:10;27.75;;;5.10;;
80987;SDS011;70452;39.386;-3.210;2023-07-20T03:22:53;26.40;;;5.03;;
80987;SDS011;70452;39.386;-3.210;2023-07-20T03:25:30;23.52;;;4.70;;
80987;SDS011;70452;39.386;-3.210;2023-07-20T03:28:04;33.17;;;5.53;;
80987;SDS011;70452;39.386;-3.210;2023-07-20T03:30:42;31.73;;;4.55;;
80987;SDS011;70452;39.386;-3.210;2023-07-20T03:33:29;27.33;;;5.82;;
80987;SDS011;70452;39.386;-3.210;2023-07-20T03:36:11;28.95;;;4.45;;
80987;SDS011;70452;39.386;-3.210;2023-07-20T03:38:51;30.10;;;6.13;;
80987;SDS011;70452;39.386;-3.210;2023-07-20T03:41:26;30.08;;;5.95;;
80987;SDS011;70452;39.386;-3.210;2023-07-20T03:44:02;29.83;;;5.93;;
80987;SDS011;70452;39.386;-3.210;2023-07-20T03:46:37;32.65;;;4.88;;
80987;SDS011;70452;39.386;-3.210;2023-07-20T03:49:20;34.08;;;5.43;;
80987;SDS011;70452;39.386;-3.210;2023-07-20T03:52:07;30.50;;;5.32;;
80987;SDS011;70452;39.386;-3.210;2023-07-20T03:57:34;34.72;;;4.97;;
80987;SDS011;70452;39.386;-3.210;2023-07-20T04:03:19;26.85;;;5.18;;
80987;SDS011;70452;39.386;-3.210;2023-07-20T04:05:53;27.98;;;5.45;;
80987;SDS011;70452;39.386;-3.210;2023-07-20T04:08:46;34.25;;;5.25;;
80987;SDS011;70452;39.386;-3.210;2023-07-20T04:11:28;33.80;;;6.10;;
80987;SDS011;70452;39.386;-3.210;2023-07-20T04:14:17;28.25;;;6.47;;
80987;SDS011;70452;39.386;-3.210;2023-07-20T04:17:22;28.92;;;5.32;;
80987;SDS011;70452;39.386;-3.210;2023-07-20T04:19:55;25.73;;;4.95;;
80987;SDS011;70452;39.386;-3.210;2023-07-20T04:22:47;38.10;;;5.95;;
80987;SDS011;70452;39.386;-3.210;2023-07-20T04:25:28;46.00;;;5.47;;
80987;SDS011;70452;39.386;-3.210;2023-07-20T04:28:04;35.35;;;5.40;;
80987;SDS011;70452;39.386;-3.210;2023-07-20T04:30:52;33.42;;;5.32;;
80987;SDS011;70452;39.386;-3.210;2023-07-20T04:33:43;26.02;;;5.13;;
80987;SDS011;70452;39.386;-3.210;2023-07-20T04:36:29;26.55;;;4.95;;
80987;SDS011;70452;39.386;-3.210;2023-07-20T04:39:07;26.10;;;4.93;;
80987;SDS011;70452;39.386;-3.210;2023-07-20T04:41:59;32.50;;;4.85;;
80987;SDS011;70452;39.386;-3.210;2023-07-20T04:44:31;29.98;;;5.65;;
80987;SDS011;70452;39.386;-3.210;2023-07-20T04:47:11;28.48;;;4.65;;
80987;SDS011;70452;39.386;-3.210;2023-07-20T04:49:40;27.42;;;4.88;;
80987;SDS011;70452;39.386;-3.210;2023-07-20T04:55:18;26.02;;;4.65;;
80987;SDS011;70452;39.386;-3.210;2023-07-20T04:58:03;35.28;;;5.95;;
80987;SDS011;70452;39.386;-3.210;2023-07-20T05:00:44;26.23;;;5.22;;
80987;SDS011;70452;39.386;-3.210;2023-07-20T05:03:23;29.15;;;4.82;;
80987;SDS011;70452;39.386;-3.210;2023-07-20T05:06:20;23.80;;;4.70;;
80987;SDS011;70452;39.386;-3.210;2023-07-20T05:08:57;32.80;;;5.20;;
80987;SDS011;70452;39.386;-3.210;2023-07-20T05:11:37;27.83;;;4.85;;
80987;SDS011;70452;39.386;-3.210;2023-07-20T05:14:18;24.83;;;5.25;;
80987;SDS011;70452;39.386;-3.210;2023-07-20T05:17:00;32.78;;;4.88;;
80987;SDS011;70452;39.386;-3.210;2023-07-20T05:19:59;23.20;;;3.92;;
80987;SDS011;70452;39.386;-3.210;2023-07-20T05:22:41;29.73;;;5.35;;
80987;SDS011;70452;39.386;-3.210;2023-07-20T05:25:31;35.60;;;5.07;;
80987;SDS011;70452;39.386;-3.210;2023-07-20T05:28:12;24.80;;;4.93;;
80987;SDS011;70452;39.386;-3.210;2023-07-20T05:33:30;41.70;;;7.22;;
80987;SDS011;70452;39.386;-3.210;2023-07-20T05:36:04;46.38;;;7.18;;
80987;SDS011;70452;39.386;-3.210;2023-07-20T05:38:47;40.72;;;7.10;;
80987;SDS011;70452;39.386;-3.210;2023-07-20T05:41:39;46.97;;;7.70;;
80987;SDS011;70452;39.386;-3.210;2023-07-20T05:44:22;43.58;;;7.30;;
80987;SDS011;70452;39.386;-3.210;2023-07-20T05:46:57;45.85;;;6.85;;
80987;SDS011;70452;39.386;-3.210;2023-07-20T05:49:42;32.40;;;6.40;;
80987;SDS011;70452;39.386;-3.210;2023-07-20T05:52:22;41.88;;;6.70;;
80987;SDS011;70452;39.386;-3.210;2023-07-20T05:55:06;34.35;;;5.55;;
80987;SDS011;70452;39.386;-3.210;2023-07-20T05:58:00;37.03;;;6.47;;
80987;SDS011;70452;39.386;-3.210;2023-07-20T06:00:41;35.55;;;6.68;;
80987;SDS011;70452;39.386;-3.210;2023-07-20T06:03:20;31.65;;;5.55;;
80987;SDS011;70452;39.386;-3.210;2023-07-20T06:05:57;31.30;;;6.10;;
80987;SDS011;70452;39.386;-3.210;2023-07-20T06:08:40;32.10;;;5.63;;
80987;SDS011;70452;39.386;-3.210;2023-07-20T06:11:19;36.75;;;6.15;;
80987;SDS011;70452;39.386;-3.210;2023-07-20T06:14:04;34.75;;;5.78;;
80987;SDS011;70452;39.386;-3.210;2023-07-20T06:16:43;39.42;;;6.65;;
80987;SDS011;70452;39.386;-3.210;2023-07-20T06:19:12;39.53;;;5.20;;
80987;SDS011;70452;39.386;-3.210;2023-07-20T06:21:52;34.22;;;6.85;;
80987;SDS011;70452;39.386;-3.210;2023-07-20T06:24:20;30.83;;;5.85;;
80987;SDS011;70452;39.386;-3.210;2023-07-20T06:26:57;33.28;;;6.70;;
80987;SDS011;70452;39.386;-3.210;2023-07-20T06:29:43;30.38;;;5.88;;
80987;SDS011;70452;39.386;-3.210;2023-07-20T06:32:17;27.48;;;5.63;;
80987;SDS011;70452;39.386;-3.210;2023-07-20T06:35:12;29.85;;;6.78;;
80987;SDS011;70452;39.386;-3.210;2023-07-20T06:37:41;32.58;;;7.47;;
80987;SDS011;70452;39.386;-3.210;2023-07-20T06:40:15;28.27;;;7.05;;
80987;SDS011;70452;39.386;-3.210;2023-07-20T06:42:51;27.45;;;6.15;;
80987;SDS011;70452;39.386;-3.210;2023-07-20T06:45:32;34.70;;;6.00;;
80987;SDS011;70452;39.386;-3.210;2023-07-20T06:48:24;30.13;;;5.70;;
80987;SDS011;70452;39.386;-3.210;2023-07-20T06:51:01;26.00;;;5.63;;
80987;SDS011;70452;39.386;-3.210;2023-07-20T06:53:30;26.40;;;6.05;;
80987;SDS011;70452;39.386;-3.210;2023-07-20T06:56:07;27.88;;;5.65;;
80987;SDS011;70452;39.386;-3.210;2023-07-20T06:58:50;24.88;;;5.53;;
80987;SDS011;70452;39.386;-3.210;2023-07-20T07:01:31;26.75;;;7.68;;
80987;SDS011;70452;39.386;-3.210;2023-07-20T07:04:03;20.63;;;6.68;;
80987;SDS011;70452;39.386;-3.210;2023-07-20T07:06:55;23.52;;;5.63;;
80987;SDS011;70452;39.386;-3.210;2023-07-20T07:09:36;25.83;;;5.22;;
80987;SDS011;70452;39.386;-3.210;2023-07-20T07:12:14;23.58;;;6.22;;
80987;SDS011;70452;39.386;-3.210;2023-07-20T07:14:51;28.10;;;6.75;;
80987;SDS011;70452;39.386;-3.210;2023-07-20T07:17:30;27.65;;;6.78;;
80987;SDS011;70452;39.386;-3.210;2023-07-20T07:20:13;19.80;;;5.57;;
80987;SDS011;70452;39.386;-3.210;2023-07-20T07:22:45;27.77;;;6.30;;
80987;SDS011;70452;39.386;-3.210;2023-07-20T07:25:23;24.15;;;6.63;;
80987;SDS011;70452;39.386;-3.210;2023-07-20T07:31:00;21.20;;;5.32;;
80987;SDS011;70452;39.386;-3.210;2023-07-20T07:36:14;20.83;;;6.20;;
80987;SDS011;70452;39.386;-3.210;2023-07-20T07:38:50;25.67;;;10.13;;
80987;SDS011;70452;39.386;-3.210;2023-07-20T07:41:32;24.08;;;7.85;;
80987;SDS011;70452;39.386;-3.210;2023-07-20T07:44:07;28.50;;;7.13;;
80987;SDS011;70452;39.386;-3.210;2023-07-20T07:46:47;29.58;;;6.45;;
80987;SDS011;70452;39.386;-3.210;2023-07-20T07:52:26;27.60;;;7.20;;
80987;SDS011;70452;39.386;-3.210;2023-07-20T07:55:00;23.67;;;6.43;;
80987;SDS011;70452;39.386;-3.210;2023-07-20T07:57:56;26.13;;;9.27;;
80987;SDS011;70452;39.386;-3.210;2023-07-20T08:00:32;25.73;;;7.90;;
80987;SDS011;70452;39.386;-3.210;2023-07-20T08:06:17;22.60;;;6.78;;
80987;SDS011;70452;39.386;-3.210;2023-07-20T08:08:57;23.92;;;5.75;;
80987;SDS011;70452;39.386;-3.210;2023-07-20T08:11:23;33.50;;;7.55;;
80987;SDS011;70452;39.386;-3.210;2023-07-20T08:13:58;26.63;;;6.78;;
80987;SDS011;70452;39.386;-3.210;2023-07-20T08:16:30;23.52;;;7.30;;
80987;SDS011;70452;39.386;-3.210;2023-07-20T08:19:04;21.70;;;6.00;;
80987;SDS011;70452;39.386;-3.210;2023-07-20T08:21:33;27.27;;;7.22;;
80987;SDS011;70452;39.386;-3.210;2023-07-20T08:24:05;24.27;;;6.38;;
80987;SDS011;70452;39.386;-3.210;2023-07-20T08:26:33;24.15;;;6.72;;
80987;SDS011;70452;39.386;-3.210;2023-07-20T08:29:04;23.92;;;6.50;;
80987;SDS011;70452;39.386;-3.210;2023-07-20T08:31:50;29.40;;;6.50;;
80987;SDS011;70452;39.386;-3.210;2023-07-20T08:34:39;23.48;;;7.22;;
80987;SDS011;70452;39.386;-3.210;2023-07-20T08:37:30;29.60;;;7.20;;
80987;SDS011;70452;39.386;-3.210;2023-07-20T08:40:27;31.70;;;6.35;;
80987;SDS011;70452;39.386;-3.210;2023-07-20T08:43:02;26.58;;;7.43;;
80987;SDS011;70452;39.386;-3.210;2023-07-20T08:45:34;24.23;;;6.38;;
80987;SDS011;70452;39.386;-3.210;2023-07-20T08:48:12;26.45;;;7.15;;
80987;SDS011;70452;39.386;-3.210;2023-07-20T08:50:42;22.88;;;7.10;;
80987;SDS011;70452;39.386;-3.210;2023-07-20T08:53:17;21.35;;;6.72;;
80987;SDS011;70452;39.386;-3.210;2023-07-20T08:55:50;23.35;;;7.70;;
80987;SDS011;70452;39.386;-3.210;2023-07-20T08:58:25;28.17;;;6.82;;
80987;SDS011;70452;39.386;-3.210;2023-07-20T09:01:00;21.45;;;7.93;;
80987;SDS011;70452;39.386;-3.210;2023-07-20T09:03:29;25.38;;;7.85;;
80987;SDS011;70452;39.386;-3.210;2023-07-20T09:06:02;25.55;;;9.02;;
80987;SDS011;70452;39.386;-3.210;2023-07-20T09:08:37;23.20;;;6.20;;
80987;SDS011;70452;39.386;-3.210;2023-07-20T09:11:11;20.70;;;6.47;;
80987;SDS011;70452;39.386;-3.210;2023-07-20T09:13:45;16.35;;;6.32;;
80987;SDS011;70452;39.386;-3.210;2023-07-20T09:16:31;21.00;;;6.32;;
80987;SDS011;70452;39.386;-3.210;2023-07-20T09:19:23;18.52;;;6.72;;
80987;SDS011;70452;39.386;-3.210;2023-07-20T09:21:58;19.08;;;7.40;;
80987;SDS011;70452;39.386;-3.210;2023-07-20T09:24:28;18.30;;;7.10;;
80987;SDS011;70452;39.386;-3.210;2023-07-20T09:27:13;18.88;;;6.60;;
80987;SDS011;70452;39.386;-3.210;2023-07-20T09:30:02;26.45;;;6.72;;
80987;SDS011;70452;39.386;-3.210;2023-07-20T09:32:37;17.30;;;8.25;;
80987;SDS011;70452;39.386;-3.210;2023-07-20T09:35:16;22.85;;;6.40;;
80987;SDS011;70452;39.386;-3.210;2023-07-20T09:37:58;20.60;;;8.85;;
80987;SDS011;70452;39.386;-3.210;2023-07-20T09:40:37;20.60;;;6.43;;
80987;SDS011;70452;39.386;-3.210;2023-07-20T09:43:07;20.10;;;6.45;;
80987;SDS011;70452;39.386;-3.210;2023-07-20T09:45:41;20.75;;;7.00;;
80987;SDS011;70452;39.386;-3.210;2023-07-20T09:48:38;20.60;;;6.68;;
80987;SDS011;70452;39.386;-3.210;2023-07-20T09:51:21;20.13;;;8.43;;
80987;SDS011;70452;39.386;-3.210;2023-07-20T09:53:56;21.45;;;7.38;;
80987;SDS011;70452;39.386;-3.210;2023-07-20T09:56:28;17.65;;;6.45;;
80987;SDS011;70452;39.386;-3.210;2023-07-20T09:59:08;20.77;;;5.90;;
80987;SDS011;70452;39.386;-3.210;2023-07-20T10:01:43;25.42;;;7.65;;
80987;SDS011;70452;39.386;-3.210;2023-07-20T10:04:12;16.02;;;8.32;;
80987;SDS011;70452;39.386;-3.210;2023-07-20T10:06:49;13.88;;;6.13;;
80987;SDS011;70452;39.386;-3.210;2023-07-20T10:09:22;15.55;;;6.82;;
80987;SDS011;70452;39.386;-3.210;2023-07-20T10:11:59;13.65;;;5.13;;
80987;SDS011;70452;39.386;-3.210;2023-07-20T10:14:40;19.20;;;7.07;;
80987;SDS011;70452;39.386;-3.210;2023-07-20T10:17:17;21.10;;;6.07;;
80987;SDS011;70452;39.386;-3.210;2023-07-20T10:19:54;21.25;;;6.18;;
80987;SDS011;70452;39.386;-3.210;2023-07-20T10:22:34;18.00;;;7.13;;
80987;SDS011;70452;39.386;-3.210;2023-07-20T10:25:24;20.10;;;6.15;;
80987;SDS011;70452;39.386;-3.210;2023-07-20T10:27:54;19.13;;;6.25;;
80987;SDS011;70452;39.386;-3.210;2023-07-20T10:30:26;20.95;;;7.32;;
80987;SDS011;70452;39.386;-3.210;2023-07-20T10:33:02;21.83;;;6.57;;
80987;SDS011;70452;39.386;-3.210;2023-07-20T10:38:41;17.65;;;6.45;;
80987;SDS011;70452;39.386;-3.210;2023-07-20T10:44:14;22.05;;;7.07;;
80987;SDS011;70452;39.386;-3.210;2023-07-20T10:46:46;20.00;;;6.88;;
80987;SDS011;70452;39.386;-3.210;2023-07-20T10:49:15;19.75;;;6.30;;
80987;SDS011;70452;39.386;-3.210;2023-07-20T10:52:05;17.48;;;6.22;;
80987;SDS011;70452;39.386;-3.210;2023-07-20T10:57:28;16.95;;;6.50;;
80987;SDS011;70452;39.386;-3.210;2023-07-20T11:02:59;15.02;;;5.63;;
80987;SDS011;70452;39.386;-3.210;2023-07-20T11:05:38;21.70;;;5.85;;
80987;SDS011;70452;39.386;-3.210;2023-07-20T11:08:38;13.70;;;6.05;;
80987;SDS011;70452;39.386;-3.210;2023-07-20T11:11:25;14.95;;;5.25;;
80987;SDS011;70452;39.386;-3.210;2023-07-20T11:14:20;14.77;;;4.80;;
80987;SDS011;70452;39.386;-3.210;2023-07-20T11:16:53;18.85;;;5.55;;
80987;SDS011;70452;39.386;-3.210;2023-07-20T11:19:39;14.77;;;5.28;;
80987;SDS011;70452;39.386;-3.210;2023-07-20T11:22:17;14.32;;;8.40;;
80987;SDS011;70452;39.386;-3.210;2023-07-20T11:24:54;16.63;;;6.95;;
80987;SDS011;70452;39.386;-3.210;2023-07-20T11:27:43;16.63;;;5.32;;
80987;SDS011;70452;39.386;-3.210;2023-07-20T11:30:20;15.65;;;6.15;;
80987;SDS011;70452;39.386;-3.210;2023-07-20T11:32:55;14.38;;;5.47;;
80987;SDS011;70452;39.386;-3.210;2023-07-20T11:35:30;15.90;;;5.68;;
80987;SDS011;70452;39.386;-3.210;2023-07-20T11:38:11;11.65;;;4.78;;
80987;SDS011;70452;39.386;-3.210;2023-07-20T11:40:47;14.65;;;6.10;;
80987;SDS011;70452;39.386;-3.210;2023-07-20T11:43:22;13.52;;;5.68;;
80987;SDS011;70452;39.386;-3.210;2023-07-20T11:46:07;15.43;;;6.60;;
80987;SDS011;70452;39.386;-3.210;2023-07-20T11:48:41;12.57;;;5.30;;
80987;SDS011;70452;39.386;-3.210;2023-07-20T11:51:14;21.45;;;6.82;;
80987;SDS011;70452;39.386;-3.210;2023-07-20T11:53:56;18.55;;;5.32;;
80987;SDS011;70452;39.386;-3.210;2023-07-20T11:56:35;19.73;;;4.68;;
80987;SDS011;70452;39.386;-3.210;2023-07-20T11:59:04;20.55;;;6.40;;
80987;SDS011;70452;39.386;-3.210;2023-07-20T12:01:57;21.08;;;6.43;;
80987;SDS011;70452;39.386;-3.210;2023-07-20T12:04:39;14.63;;;4.88;;
80987;SDS011;70452;39.386;-3.210;2023-07-20T12:07:14;20.02;;;5.53;;
80987;SDS011;70452;39.386;-3.210;2023-07-20T12:10:02;17.30;;;6.78;;
80987;SDS011;70452;39.386;-3.210;2023-07-20T12:12:34;16.73;;;5.95;;
80987;SDS011;70452;39.386;-3.210;2023-07-20T12:15:12;18.77;;;5.53;;
80987;SDS011;70452;39.386;-3.210;2023-07-20T12:18:08;16.77;;;6.40;;
80987;SDS011;70452;39.386;-3.210;2023-07-20T12:23:34;20.23;;;6.20;;
80987;SDS011;70452;39.386;-3.210;2023-07-20T12:26:12;23.92;;;6.30;;
80987;SDS011;70452;39.386;-3.210;2023-07-20T12:28:49;18.75;;;5.72;;
80987;SDS011;70452;39.386;-3.210;2023-07-20T12:31:27;19.05;;;6.38;;
80987;SDS011;70452;39.386;-3.210;2023-07-20T12:34:07;21.08;;;5.85;;
80987;SDS011;70452;39.386;-3.210;2023-07-20T12:36:49;17.83;;;5.43;;
80987;SDS011;70452;39.386;-3.210;2023-07-20T12:39:27;22.58;;;7.30;;
80987;SDS011;70452;39.386;-3.210;2023-07-20T12:41:58;22.73;;;5.28;;
80987;SDS011;70452;39.386;-3.210;2023-07-20T12:44:33;25.27;;;5.28;;
80987;SDS011;70452;39.386;-3.210;2023-07-20T12:47:05;31.42;;;6.55;;
80987;SDS011;70452;39.386;-3.210;2023-07-20T12:49:45;19.90;;;5.22;;
80987;SDS011;70452;39.386;-3.210;2023-07-20T12:52:19;21.17;;;5.90;;
80987;SDS011;70452;39.386;-3.210;2023-07-20T12:54:54;13.20;;;5.93;;
80987;SDS011;70452;39.386;-3.210;2023-07-20T12:57:29;25.55;;;5.88;;
80987;SDS011;70452;39.386;-3.210;2023-07-20T13:00:01;23.45;;;5.90;;
80987;SDS011;70452;39.386;-3.210;2023-07-20T13:05:15;20.98;;;5.53;;
80987;SDS011;70452;39.386;-3.210;2023-07-20T13:07:47;19.63;;;6.35;;
80987;SDS011;70452;39.386;-3.210;2023-07-20T13:10:24;28.52;;;6.78;;
80987;SDS011;70452;39.386;-3.210;2023-07-20T13:13:04;22.85;;;5.45;;
80987;SDS011;70452;39.386;-3.210;2023-07-20T13:15:45;26.23;;;6.82;;
80987;SDS011;70452;39.386;-3.210;2023-07-20T13:18:21;21.20;;;5.82;;
80987;SDS011;70452;39.386;-3.210;2023-07-20T13:20:57;24.05;;;6.57;;
80987;SDS011;70452;39.386;-3.210;2023-07-20T13:23:38;18.33;;;5.72;;
80987;SDS011;70452;39.386;-3.210;2023-07-20T13:26:32;28.25;;;5.60;;
80987;SDS011;70452;39.386;-3.210;2023-07-20T13:29:11;18.85;;;6.22;;
80987;SDS011;70452;39.386;-3.210;2023-07-20T13:31:46;29.02;;;7.65;;
80987;SDS011;70452;39.386;-3.210;2023-07-20T13:34:30;28.33;;;6.75;;
80987;SDS011;70452;39.386;-3.210;2023-07-20T13:37:11;22.55;;;6.80;;
80987;SDS011;70452;39.386;-3.210;2023-07-20T13:39:47;29.23;;;8.27;;
80987;SDS011;70452;39.386;-3.210;2023-07-20T13:42:26;21.60;;;9.27;;
80987;SDS011;70452;39.386;-3.210;2023-07-20T13:44:57;22.13;;;8.10;;
80987;SDS011;70452;39.386;-3.210;2023-07-20T13:47:29;19.88;;;8.50;;
80987;SDS011;70452;39.386;-3.210;2023-07-20T13:50:04;20.67;;;7.93;;
80987;SDS011;70452;39.386;-3.210;2023-07-20T13:52:39;17.08;;;6.97;;
80987;SDS011;70452;39.386;-3.210;2023-07-20T13:55:13;18.35;;;7.65;;
80987;SDS011;70452;39.386;-3.210;2023-07-20T13:57:48;19.88;;;6.57;;
80987;SDS011;70452;39.386;-3.210;2023-07-20T14:00:26;17.77;;;5.85;;
80987;SDS011;70452;39.386;-3.210;2023-07-20T14:02:59;22.63;;;7.40;;
80987;SDS011;70452;39.386;-3.210;2023-07-20T14:05:33;18.85;;;5.85;;
80987;SDS011;70452;39.386;-3.210;2023-07-20T14:08:06;19.42;;;6.45;;
80987;SDS011;70452;39.386;-3.210;2023-07-20T14:10:58;22.10;;;6.50;;
80987;SDS011;70452;39.386;-3.210;2023-07-20T14:13:35;21.17;;;6.60;;
80987;SDS011;70452;39.386;-3.210;2023-07-20T14:16:11;13.73;;;6.60;;
80987;SDS011;70452;39.386;-3.210;2023-07-20T14:18:49;17.17;;;6.13;;
80987;SDS011;70452;39.386;-3.210;2023-07-20T14:21:22;20.02;;;4.85;;
80987;SDS011;70452;39.386;-3.210;2023-07-20T14:23:54;21.20;;;6.50;;
80987;SDS011;70452;39.386;-3.210;2023-07-20T14:26:50;18.25;;;6.20;;
80987;SDS011;70452;39.386;-3.210;2023-07-20T14:29:20;15.23;;;5.90;;
80987;SDS011;70452;39.386;-3.210;2023-07-20T14:31:55;17.25;;;4.32;;
80987;SDS011;70452;39.386;-3.210;2023-07-20T14:34:46;15.02;;;6.32;;
80987;SDS011;70452;39.386;-3.210;2023-07-20T14:37:17;19.27;;;6.40;;
80987;SDS011;70452;39.386;-3.210;2023-07-20T14:39:57;12.98;;;4.43;;
80987;SDS011;70452;39.386;-3.210;2023-07-20T14:42:35;23.73;;;5.45;;
80987;SDS011;70452;39.386;-3.210;2023-07-20T14:45:09;18.67;;;5.55;;
80987;SDS011;70452;39.386;-3.210;2023-07-20T14:47:41;16.75;;;4.70;;
80987;SDS011;70452;39.386;-3.210;2023-07-20T14:50:13;12.85;;;4.55;;
80987;SDS011;70452;39.386;-3.210;2023-07-20T14:52:50;16.15;;;7.30;;
80987;SDS011;70452;39.386;-3.210;2023-07-20T14:55:24;17.40;;;5.20;;
80987;SDS011;70452;39.386;-3.210;2023-07-20T14:58:08;15.68;;;4.03;;
80987;SDS011;70452;39.386;-3.210;2023-07-20T15:00:50;15.55;;;5.25;;
80987;SDS011;70452;39.386;-3.210;2023-07-20T15:03:27;14.98;;;4.28;;
80987;SDS011;70452;39.386;-3.210;2023-07-20T15:05:59;19.45;;;5.85;;
80987;SDS011;70452;39.386;-3.210;2023-07-20T15:08:44;16.05;;;5.45;;
80987;SDS011;70452;39.386;-3.210;2023-07-20T15:11:18;18.27;;;5.32;;
80987;SDS011;70452;39.386;-3.210;2023-07-20T15:13:52;14.90;;;4.63;;
80987;SDS011;70452;39.386;-3.210;2023-07-20T15:16:23;16.25;;;4.30;;
80987;SDS011;70452;39.386;-3.210;2023-07-20T15:19:10;13.50;;;4.07;;
80987;SDS011;70452;39.386;-3.210;2023-07-20T15:21:50;12.40;;;4.22;;
80987;SDS011;70452;39.386;-3.210;2023-07-20T15:24:40;17.67;;;5.60;;
80987;SDS011;70452;39.386;-3.210;2023-07-20T15:27:17;15.02;;;4.88;;
80987;SDS011;70452;39.386;-3.210;2023-07-20T15:30:10;12.35;;;4.38;;
80987;SDS011;70452;39.386;-3.210;2023-07-20T15:32:51;13.32;;;3.28;;
80987;SDS011;70452;39.386;-3.210;2023-07-20T15:35:22;13.18;;;4.63;;
80987;SDS011;70452;39.386;-3.210;2023-07-20T15:41:01;12.07;;;4.43;;
80987;SDS011;70452;39.386;-3.210;2023-07-20T15:43:33;13.13;;;4.28;;
80987;SDS011;70452;39.386;-3.210;2023-07-20T15:49:21;15.60;;;4.15;;
80987;SDS011;70452;39.386;-3.210;2023-07-20T15:51:48;11.57;;;3.72;;
80987;SDS011;70452;39.386;-3.210;2023-07-20T15:54:18;6.82;;;2.58;;
80987;SDS011;70452;39.386;-3.210;2023-07-20T15:56:44;7.72;;;3.40;;
80987;SDS011;70452;39.386;-3.210;2023-07-20T15:59:19;10.55;;;2.72;;
80987;SDS011;70452;39.386;-3.210;2023-07-20T16:04:45;13.60;;;4.32;;
80987;SDS011;70452;39.386;-3.210;2023-07-20T16:07:16;8.80;;;3.03;;
80987;SDS011;70452;39.386;-3.210;2023-07-20T16:09:48;17.02;;;2.85;;
80987;SDS011;70452;39.386;-3.210;2023-07-20T16:12:23;19.60;;;4.68;;
80987;SDS011;70452;39.386;-3.210;2023-07-20T16:14:56;11.98;;;4.47;;
80987;SDS011;70452;39.386;-3.210;2023-07-20T16:20:17;15.57;;;3.45;;
80987;SDS011;70452;39.386;-3.210;2023-07-20T16:22:49;10.60;;;2.75;;
80987;SDS011;70452;39.386;-3.210;2023-07-20T16:25:33;11.70;;;2.25;;
80987;SDS011;70452;39.386;-3.210;2023-07-20T16:28:04;12.70;;;3.00;;
80987;SDS011;70452;39.386;-3.210;2023-07-20T16:30:37;10.82;;;2.90;;
80987;SDS011;70452;39.386;-3.210;2023-07-20T16:33:05;8.25;;;2.22;;
80987;SDS011;70452;39.386;-3.210;2023-07-20T16:35:53;13.88;;;2.55;;
80987;SDS011;70452;39.386;-3.210;2023-07-20T16:41:08;8.68;;;2.38;;
80987;SDS011;70452;39.386;-3.210;2023-07-20T16:44:03;8.43;;;1.88;;